| time (UTC) | temp F | wind direction | speed MPH | gust MPH | rain 1hr in | rain 24hr in | rain mn in | humidity % | barometer mb |
| 20260901225045 | 99 | 349 | 1.0 | 3.0 | 0.00 | 0.00 | 0.00 | 37 | 1015.5 |
| 20260901224023 | 100 | 277 | 3.0 | 7.0 | 0.00 | 0.00 | 0.00 | 35 | 1015.6 |
| 20260901223021 | 100 | 257 | 3.0 | 5.0 | 0.00 | 0.00 | 0.00 | 35 | 1015.5 |
| 20260901222019 | 100 | 336 | 1.0 | 3.0 | 0.00 | 0.00 | 0.00 | 36 | 1015.6 |
| 20260901221017 | 100 | 232 | 2.0 | 4.0 | 0.00 | 0.00 | 0.00 | 35 | 1015.6 |
| 20260901220015 | 101 | 209 | 1.0 | 4.0 | 0.00 | 0.00 | 0.00 | 35 | 1015.6 |
| 20260901215033 | 100 | 258 | 2.0 | 4.0 | 0.00 | 0.00 | 0.00 | 35 | 1015.6 |
| 20260901214031 | 103 | 255 | 3.0 | 6.0 | 0.00 | 0.00 | 0.00 | 32 | 1015.6 |
| 20260901213050 | 104 | 12 | 1.0 | 3.0 | 0.00 | 0.00 | 0.00 | 32 | 1015.7 |
| 20260901212048 | 103 | 239 | 3.0 | 7.0 | 0.00 | 0.00 | 0.00 | 32 | 1015.8 |
| 20260901211026 | 102 | 295 | 2.0 | 4.0 | 0.00 | 0.00 | 0.00 | 33 | 1016.0 |
| 20260901210024 | 102 | 30 | 3.0 | 5.0 | 0.00 | 0.00 | 0.00 | 34 | 1016.1 |
| 20260901205022 | 101 | 287 | 3.0 | 6.0 | 0.00 | 0.00 | 0.00 | 34 | 1016.2 |
| 20260901204020 | 103 | 271 | 4.0 | 9.0 | 0.00 | 0.00 | 0.00 | 33 | 1016.2 |
| 20260901203018 | 102 | 227 | 4.0 | 6.0 | 0.00 | 0.00 | 0.00 | 34 | 1016.3 |
| 20260901202037 | 102 | 15 | 2.0 | 5.0 | 0.00 | 0.00 | 0.00 | 33 | 1016.4 |
| 20260901201035 | 102 | 261 | 4.0 | 7.0 | 0.00 | 0.00 | 0.00 | 33 | 1016.6 |
| 20260901200033 | 101 | 253 | 5.0 | 11.0 | 0.00 | 0.00 | 0.00 | 33 | 1016.7 |
| 20260901195031 | 101 | 275 | 3.0 | 6.0 | 0.00 | 0.00 | 0.00 | 34 | 1016.8 |
| 20260901194029 | 100 | 35 | 2.0 | 5.0 | 0.00 | 0.00 | 0.00 | 36 | 1017.0 |
| 20260901193027 | 99 | 265 | 2.0 | 5.0 | 0.00 | 0.00 | 0.00 | 36 | 1017.0 |
| 20260901192025 | 99 | 257 | 3.0 | 6.0 | 0.00 | 0.00 | 0.00 | 36 | 1017.2 |
| 20260901191023 | 101 | 251 | 3.0 | 6.0 | 0.00 | 0.00 | 0.00 | 33 | 1017.3 |
| 20260901190022 | 101 | 251 | 5.0 | 9.0 | 0.00 | 0.00 | 0.00 | 35 | 1017.3 |
| 20260901185100 | 101 | 246 | 4.0 | 10.0 | 0.00 | 0.00 | 0.00 | 36 | 1017.4 |
| 20260901184018 | 99 | 264 | 4.0 | 7.0 | 0.00 | 0.00 | 0.00 | 38 | 1017.6 |
| 20260901183016 | 98 | 235 | 3.0 | 6.0 | 0.00 | 0.00 | 0.00 | 39 | 1017.5 |
| 20260901182035 | 101 | 275 | 4.0 | 9.0 | 0.00 | 0.00 | 0.00 | 37 | 1017.8 |
| 20260901181113 | 98 | 295 | 3.0 | 6.0 | 0.00 | 0.00 | 0.00 | 40 | 1018.0 |
| 20260901180030 | 97 | 264 | 4.0 | 8.0 | 0.00 | 0.00 | 0.00 | 40 | 1018.3 |
| 20260901175029 | 97 | 248 | 5.0 | 9.0 | 0.00 | 0.00 | 0.00 | 41 | 1018.2 |
| 20260901174027 | 97 | 272 | 5.0 | 8.0 | 0.00 | 0.00 | 0.00 | 42 | 1018.4 |
| 20260901173025 | 97 | 259 | 3.0 | 9.0 | 0.00 | 0.00 | 0.00 | 42 | 1018.5 |
| 20260901172023 | 95 | 254 | 4.0 | 6.0 | 0.00 | 0.00 | 0.00 | 45 | 1018.7 |
| 20260901171021 | 96 | 279 | 2.0 | 5.0 | 0.00 | 0.00 | 0.00 | 44 | 1018.7 |
| 20260901170019 | 95 | 266 | 3.0 | 6.0 | 0.00 | 0.00 | 0.00 | 45 | 1018.8 |
| 20260901165017 | 95 | 360 | 3.0 | 6.0 | 0.00 | 0.00 | 0.00 | 45 | 1018.9 |
| 20260901164016 | 95 | 257 | 3.0 | 9.0 | 0.00 | 0.00 | 0.00 | 45 | 1019.2 |
| 20260901163034 | 95 | 295 | 3.0 | 5.0 | 0.00 | 0.00 | 0.00 | 47 | 1019.2 |
| 20260901162032 | 94 | 280 | 4.0 | 7.0 | 0.00 | 0.00 | 0.00 | 48 | 1019.2 |
| 20260901161030 | 92 | 324 | 1.0 | 6.0 | 0.00 | 0.00 | 0.00 | 50 | 1019.3 |
| 20260901160028 | 91 | 262 | 3.0 | 5.0 | 0.00 | 0.00 | 0.00 | 53 | 1019.2 |
| 20260901155026 | 90 | 262 | 2.0 | 6.0 | 0.00 | 0.00 | 0.00 | 54 | 1019.3 |
| 20260901154044 | 89 | 261 | 5.0 | 8.0 | 0.00 | 0.00 | 0.00 | 54 | 1019.3 |
| 20260901153022 | 89 | 254 | 4.0 | 9.0 | 0.00 | 0.00 | 0.00 | 54 | 1019.3 |
| 20260901152020 | 87 | 277 | 3.0 | 6.0 | 0.00 | 0.00 | 0.00 | 57 | 1019.3 |
| 20260901151019 | 88 | 269 | 4.0 | 8.0 | 0.00 | 0.00 | 0.00 | 56 | 1019.4 |
| 20260901150017 | 87 | 252 | 4.0 | 8.0 | 0.00 | 0.00 | 0.00 | 57 | 1019.3 |
| 20260901145115 | 86 | 267 | 4.0 | 8.0 | 0.00 | 0.00 | 0.00 | 58 | 1019.3 |
| 20260901144033 | 85 | 251 | 2.0 | 4.0 | 0.00 | 0.00 | 0.00 | 59 | 1019.3 |
| 20260901143031 | 85 | 278 | 3.0 | 5.0 | 0.00 | 0.00 | 0.00 | 60 | 1019.5 |
| 20260901142029 | 84 | 252 | 2.0 | 4.0 | 0.00 | 0.00 | 0.00 | 63 | 1019.3 |
| 20260901141027 | 83 | 267 | 3.0 | 5.0 | 0.00 | 0.00 | 0.00 | 63 | 1019.4 |
| 20260901140026 | 82 | 211 | 2.0 | 4.0 | 0.00 | 0.00 | 0.00 | 65 | 1019.5 |
| 20260901135024 | 81 | 238 | 2.0 | 3.0 | 0.00 | 0.00 | 0.00 | 68 | 1019.4 |
| 20260901134022 | 80 | 249 | 2.0 | 4.0 | 0.00 | 0.00 | 0.00 | 70 | 1019.5 |
| 20260901133020 | 78 | 239 | 2.0 | 4.0 | 0.00 | 0.00 | 0.00 | 73 | 1019.4 |
| 20260901132018 | 77 | 289 | 3.0 | 6.0 | 0.00 | 0.00 | 0.00 | 74 | 1019.4 |
| 20260901131016 | 76 | 247 | 1.0 | 4.0 | 0.00 | 0.00 | 0.00 | 76 | 1019.3 |
| 20260901130054 | 75 | 15 | 2.0 | 4.0 | 0.00 | 0.00 | 0.00 | 78 | 1019.5 |
| 20260901125032 | 74 | 136 | 1.0 | 3.0 | 0.00 | 0.00 | 0.00 | 80 | 1019.3 |
| 20260901124051 | 72 | 118 | 1.0 | 3.0 | 0.00 | 0.00 | 0.00 | 82 | 1019.2 |
| 20260901123029 | 72 | 118 | 2.0 | 3.0 | 0.00 | 0.00 | 0.00 | 81 | 1018.9 |
| 20260901122027 | 72 | 81 | 2.0 | 4.0 | 0.00 | 0.00 | 0.00 | 81 | 1018.8 |
| 20260901121045 | 72 | 107 | 1.0 | 4.0 | 0.00 | 0.00 | 0.00 | 81 | 1018.7 |
| 20260901120043 | 72 | 46 | 1.0 | 3.0 | 0.00 | 0.00 | 0.00 | 81 | 1018.6 |
| 20260901115021 | 72 | 107 | 2.0 | 4.0 | 0.00 | 0.00 | 0.00 | 80 | 1018.4 |
| 20260901114019 | 72 | 92 | 2.0 | 4.0 | 0.00 | 0.00 | 0.00 | 80 | 1018.4 |
| 20260901113018 | 72 | 124 | 2.0 | 4.0 | 0.00 | 0.00 | 0.00 | 80 | 1018.2 |
| 20260901112539 | 71 | 33 | 4.0 | 7.0 | 0.00 | 0.00 | 0.00 | 80 | 1018.1 |
| 20260901111517 | 71 | 61 | 2.0 | 3.0 | 0.00 | 0.00 | 0.00 | 81 | 1018.1 |
| 20260901110515 | 71 | 107 | 2.0 | 4.0 | 0.00 | 0.00 | 0.00 | 80 | 1018.2 |
| 20260901105533 | 72 | 123 | 2.0 | 5.0 | 0.00 | 0.00 | 0.00 | 80 | 1018.0 |
| 20260901104532 | 72 | 21 | 4.0 | 8.0 | 0.00 | 0.00 | 0.00 | 79 | 1018.1 |
| 20260901103530 | 72 | 47 | 2.0 | 3.0 | 0.00 | 0.00 | 0.00 | 79 | 1018.1 |
| 20260901102528 | 72 | 152 | 2.0 | 4.0 | 0.00 | 0.00 | 0.00 | 78 | 1017.9 |
| 20260901101526 | 73 | 55 | 1.0 | 3.0 | 0.00 | 0.00 | 0.00 | 77 | 1018.1 |
| 20260901100524 | 73 | 142 | 2.0 | 5.0 | 0.00 | 0.00 | 0.00 | 76 | 1017.9 |
| 20260901095522 | 73 | 37 | 1.0 | 3.0 | 0.00 | 0.00 | 0.00 | 76 | 1017.9 |
| 20260901094641 | 73 | 25 | 3.0 | 4.0 | 0.00 | 0.00 | 0.00 | 76 | 1018.0 |
| 20260901093538 | 73 | 38 | 3.0 | 5.0 | 0.00 | 0.00 | 0.00 | 76 | 1017.9 |
| 20260901092536 | 73 | 76 | 1.0 | 4.0 | 0.00 | 0.00 | 0.00 | 76 | 1017.7 |
| 20260901091535 | 73 | 74 | 1.0 | 2.0 | 0.00 | 0.00 | 0.00 | 76 | 1017.7 |
| 20260901090613 | 73 | 61 | 1.0 | 2.0 | 0.00 | 0.00 | 0.00 | 75 | 1017.6 |
| 20260901085531 | 73 | 58 | 1.0 | 2.0 | 0.00 | 0.00 | 0.00 | 75 | 1017.7 |
| 20260901084529 | 73 | 64 | 2.0 | 3.0 | 0.00 | 0.00 | 0.00 | 74 | 1017.6 |
| 20260901083627 | 73 | 74 | 1.0 | 2.0 | 0.00 | 0.00 | 0.00 | 74 | 1017.6 |
| 20260901082525 | 74 | 61 | 1.0 | 2.0 | 0.00 | 0.00 | 0.00 | 73 | 1017.6 |
| 20260901081523 | 74 | 52 | 1.0 | 2.0 | 0.00 | 0.00 | 0.00 | 72 | 1017.5 |
| 20260901080522 | 74 | 68 | 1.0 | 3.0 | 0.00 | 0.00 | 0.00 | 72 | 1017.5 |
| 20260901075519 | 75 | 77 | 1.0 | 2.0 | 0.00 | 0.00 | 0.00 | 71 | 1017.6 |
| 20260901074518 | 75 | 65 | 1.0 | 2.0 | 0.00 | 0.00 | 0.00 | 71 | 1017.5 |
| 20260901073516 | 75 | 72 | 1.0 | 2.0 | 0.00 | 0.00 | 0.00 | 70 | 1017.5 |
| 20260901072534 | 75 | 57 | 1.0 | 2.0 | 0.00 | 0.00 | 0.00 | 70 | 1017.4 |
| 20260901071552 | 75 | 75 | 1.0 | 2.0 | 0.00 | 0.00 | 0.00 | 69 | 1017.4 |
| 20260901070531 | 76 | 57 | 1.0 | 2.0 | 0.00 | 0.00 | 0.00 | 68 | 1017.6 |
| 20260901065529 | 76 | 95 | 1.0 | 2.0 | 0.00 | 0.00 | 0.00 | 67 | 1017.5 |
| 20260901064527 | 76 | 87 | 1.0 | 2.0 | 0.00 | 0.00 | 0.00 | 67 | 1017.6 |
| 20260901063525 | 76 | 78 | 1.0 | 2.0 | 0.00 | 0.00 | 0.00 | 67 | 1017.6 |
| 20260901062523 | 77 | 56 | 1.0 | 2.0 | 0.00 | 0.00 | 0.00 | 67 | 1017.6 |
| 20260901061521 | 77 | 44 | 1.0 | 3.0 | 0.00 | 0.00 | 0.00 | 66 | 1017.7 |
| 20260901060559 | 77 | 85 | 1.0 | 2.0 | 0.00 | 0.00 | 0.00 | 66 | 1017.5 |
| 20260901055517 | 77 | 76 | 1.0 | 2.0 | 0.00 | 0.00 | 0.00 | 66 | 1017.5 |
| 20260901054515 | 77 | 37 | 0.0 | 2.0 | 0.00 | 0.00 | 0.00 | 65 | 1017.5 |
| 20260901053533 | 78 | 48 | 1.0 | 3.0 | 0.00 | 0.00 | 0.00 | 64 | 1017.5 |
| 20260901052532 | 78 | 30 | 1.0 | 2.0 | 0.00 | 0.00 | 0.00 | 64 | 1017.3 |
| 20260901051530 | 79 | 35 | 0.0 | 2.0 | 0.00 | 0.00 | 0.00 | 62 | 1017.3 |
| 20260901050548 | 80 | 48 | 1.0 | 2.0 | 0.00 | 0.00 | 0.00 | 60 | 1017.2 |
| 20260901045526 | 80 | 91 | 1.0 | 3.0 | 0.00 | 0.00 | 0.00 | 60 | 1017.3 |
| 20260901044524 | 80 | 74 | 0.0 | 2.0 | 0.00 | 0.00 | 0.00 | 60 | 1017.3 |
| 20260901043522 | 80 | 16 | 0.0 | 2.0 | 0.00 | 0.00 | 0.00 | 60 | 1017.3 |
| 20260901042520 | 80 | 337 | 0.0 | 2.0 | 0.00 | 0.00 | 0.00 | 59 | 1017.2 |
| 20260901041519 | 81 | 22 | 0.0 | 2.0 | 0.00 | 0.00 | 0.00 | 58 | 1017.2 |
| 20260901040517 | 81 | 33 | 1.0 | 2.0 | 0.00 | 0.00 | 0.00 | 57 | 1017.2 |
| 20260901035535 | 82 | 322 | 1.0 | 2.0 | 0.00 | 0.00 | 0.00 | 56 | 1017.2 |
| 20260901034533 | 82 | 322 | 0.0 | 2.0 | 0.00 | 0.00 | 0.00 | 56 | 1017.3 |
| 20260901033531 | 82 | 344 | 0.0 | 2.0 | 0.00 | 0.00 | 0.00 | 55 | 1017.3 |
| 20260901032529 | 83 | 325 | 0.0 | 2.0 | 0.00 | 0.00 | 0.00 | 54 | 1017.3 |
| 20260901031527 | 83 | 301 | 0.0 | 2.0 | 0.00 | 0.00 | 0.00 | 53 | 1017.1 |
| 20260901030526 | 84 | 286 | 1.0 | 2.0 | 0.00 | 0.00 | 0.00 | 52 | 1017.1 |
| 20260901025523 | 85 | 259 | 1.0 | 3.0 | 0.00 | 0.00 | 0.00 | 51 | 1017.0 |
| 20260901024522 | 85 | 272 | 1.0 | 3.0 | 0.00 | 0.00 | 0.00 | 51 | 1016.9 |
| 20260901023520 | 84 | 221 | 2.0 | 5.0 | 0.00 | 0.00 | 0.00 | 51 | 1016.7 |
| 20260901022518 | 84 | 64 | 1.0 | 2.0 | 0.00 | 0.00 | 0.00 | 52 | 1016.6 |
| 20260901021516 | 85 | 43 | 1.0 | 2.0 | 0.00 | 0.00 | 0.00 | 51 | 1016.4 |
| 20260901020534 | 85 | 47 | 0.0 | 2.0 | 0.00 | 0.00 | 0.00 | 51 | 1016.4 |
| 20260901015532 | 86 | 350 | 0.0 | 2.0 | 0.00 | 0.00 | 0.00 | 51 | 1016.1 |
| 20260901014550 | 86 | 28 | 1.0 | 2.0 | 0.00 | 0.00 | 0.00 | 50 | 1016.0 |
| 20260901013528 | 87 | 81 | 0.0 | 2.0 | 0.00 | 0.00 | 0.00 | 49 | 1015.9 |
| 20260901012547 | 87 | 3 | 0.0 | 1.0 | 0.00 | 0.00 | 0.00 | 49 | 1015.8 |
| 20260901011525 | 88 | 38 | 0.0 | 2.0 | 0.00 | 0.00 | 0.00 | 48 | 1015.6 |
| 20260901010523 | 89 | 85 | 0.0 | 2.0 | 0.00 | 0.00 | 0.00 | 46 | 1015.6 |
| 20260901005521 | 89 | 35 | 0.0 | 2.0 | 0.00 | 0.00 | 0.00 | 45 | 1015.5 |
| 20260901004519 | 90 | 15 | 0.0 | 2.0 | 0.00 | 0.00 | 0.00 | 44 | 1015.5 |
| 20260901003517 | 91 | 359 | 0.0 | 2.0 | 0.00 | 0.00 | 0.00 | 43 | 1015.4 |
| 20260901002516 | 92 | 351 | 0.0 | 1.0 | 0.00 | 0.00 | 0.00 | 42 | 1015.4 |
| 20260901001534 | 93 | 309 | 1.0 | 3.0 | 0.00 | 0.00 | 0.00 | 40 | 1015.3 |
| 20260901000552 | 94 | 42 | 1.0 | 3.0 | 0.00 | 0.00 | 0.00 | 39 | 1015.4 |
| 20260831235530 | 95 | 285 | 2.0 | 3.0 | 0.00 | 0.00 | 0.00 | 38 | 1015.3 |
| 20260831234548 | 96 | 293 | 2.0 | 4.0 | 0.00 | 0.00 | 0.00 | 37 | 1015.4 |
| 20260831233526 | 96 | 300 | 1.0 | 3.0 | 0.00 | 0.00 | 0.00 | 37 | 1015.2 |
| 20260831232544 | 97 | 277 | 2.0 | 4.0 | 0.00 | 0.00 | 0.00 | 35 | 1015.2 |
| 20260831231522 | 98 | 268 | 3.0 | 6.0 | 0.00 | 0.00 | 0.00 | 34 | 1015.3 |
| 20260831230621 | 99 | 211 | 2.0 | 5.0 | 0.00 | 0.00 | 0.00 | 34 | 1015.4 |
| 20260831225520 | 100 | 242 | 3.0 | 6.0 | 0.00 | 0.00 | 0.00 | 32 | 1015.3 |